Time;durP1;ratioP1;P1;durP2;ratioP2;P2;SDS_P1;SDS_P2;PMS_P1;PMS_P2;Temp;Humidity;BMP_temperature;BMP_pressure;BME280_temperature;BME280_humidity;BME280_pressure;Samples;Min_cycle;Max_cycle;Signal;HPM_P1;HPM_P2
2023/04/17 00:01:12;;;;;;;1.30;1.30;;;9.90;99.00;;;;;;5077926;28;20283;-71
2023/04/17 00:03:39;;;;;;;1.35;1.35;;;9.90;99.00;;;;;;5078837;28;20193;-69
2023/04/17 00:06:08;;;;;;;1.30;1.30;;;9.90;99.20;;;;;;5079605;28;20328;-69
2023/04/17 00:08:35;;;;;;;1.30;1.30;;;9.90;99.30;;;;;;5082295;28;20217;-69
2023/04/17 00:11:02;;;;;;;1.30;1.30;;;9.80;99.40;;;;;;5080609;28;20288;-71
2023/04/17 00:13:29;;;;;;;1.30;1.30;;;9.80;99.30;;;;;;5084019;28;20653;-70
2023/04/17 00:15:56;;;;;;;1.13;1.13;;;9.80;99.30;;;;;;5082432;28;20202;-73
2023/04/17 00:18:23;;;;;;;1.20;1.20;;;9.80;99.20;;;;;;5080672;28;20198;-69
2023/04/17 00:20:49;;;;;;;1.70;1.70;;;9.80;99.10;;;;;;5078373;28;20210;-70
2023/04/17 00:23:18;;;;;;;3.25;1.25;;;9.80;99.30;;;;;;5080839;28;20263;-72
2023/04/17 00:25:45;;;;;;;1.20;1.20;;;9.90;99.80;;;;;;5079579;28;20245;-70
2023/04/17 00:28:11;;;;;;;1.23;1.23;;;9.80;99.90;;;;;;5081808;28;20297;-71
2023/04/17 00:30:38;;;;;;;1.23;1.23;;;9.70;99.90;;;;;;5080579;28;20241;-70
2023/04/17 00:33:05;;;;;;;1.48;1.48;;;9.80;99.90;;;;;;5079288;28;20665;-71
2023/04/17 00:35:32;;;;;;;1.08;1.08;;;9.70;99.90;;;;;;5079576;28;20197;-74
2023/04/17 00:37:59;;;;;;;1.30;1.30;;;9.70;99.90;;;;;;5083585;28;20194;-69
2023/04/17 00:40:27;;;;;;;1.27;1.27;;;9.80;99.90;;;;;;5081162;28;20238;-69
2023/04/17 00:43:00;;;;;;;1.33;1.33;;;9.90;99.90;;;;;;5081257;28;20837;-72
2023/04/17 00:45:26;;;;;;;1.40;1.40;;;9.90;99.90;;;;;;5083973;28;20256;-71
2023/04/17 00:47:54;;;;;;;1.40;1.40;;;9.80;99.90;;;;;;5082559;28;20228;-70
2023/04/17 00:50:22;;;;;;;1.25;1.25;;;9.80;99.90;;;;;;5079977;28;20610;-74
2023/04/17 00:52:49;;;;;;;1.23;1.23;;;9.70;99.90;;;;;;5081023;28;20232;-71
2023/04/17 00:55:17;;;;;;;1.27;1.27;;;9.70;99.90;;;;;;5079991;28;20194;-73
2023/04/17 00:57:48;;;;;;;1.40;1.40;;;9.70;99.90;;;;;;5075529;28;20274;-73
2023/04/17 01:00:16;;;;;;;1.50;1.50;;;9.80;99.90;;;;;;5076369;28;20226;-73
2023/04/17 01:02:44;;;;;;;1.10;1.10;;;9.90;99.90;;;;;;5079331;28;20296;-70
2023/04/17 01:05:11;;;;;;;1.20;1.20;;;9.80;99.90;;;;;;5080789;28;20221;-72
2023/04/17 01:07:40;;;;;;;1.40;1.40;;;9.90;99.90;;;;;;5078685;28;20238;-71
2023/04/17 01:10:08;;;;;;;1.40;1.40;;;9.80;99.90;;;;;;5078379;28;20892;-72
2023/04/17 01:12:35;;;;;;;1.58;1.58;;;9.80;99.90;;;;;;5078913;28;20259;-70
2023/04/17 01:15:04;;;;;;;1.30;1.30;;;9.70;99.90;;;;;;5079174;28;20588;-70
2023/04/17 01:17:31;;;;;;;1.63;1.60;;;9.60;99.90;;;;;;5081336;28;20213;-72
2023/04/17 01:19:58;;;;;;;1.30;1.20;;;9.60;99.90;;;;;;5082136;28;20278;-75
2023/04/17 01:22:25;;;;;;;1.48;1.48;;;9.60;99.90;;;;;;5078632;28;20234;-70
2023/04/17 01:24:53;;;;;;;1.30;1.30;;;9.60;99.90;;;;;;5079429;28;20311;-71
2023/04/17 01:27:21;;;;;;;1.42;1.42;;;9.60;99.90;;;;;;5079026;28;20289;-70
2023/04/17 01:29:48;;;;;;;1.27;1.27;;;9.60;99.90;;;;;;5080377;28;20283;-70
2023/04/17 01:32:15;;;;;;;1.05;1.05;;;9.60;99.90;;;;;;5082318;28;20237;-70
2023/04/17 01:34:42;;;;;;;1.10;1.10;;;9.60;99.90;;;;;;5079308;28;20209;-72
2023/04/17 01:37:09;;;;;;;1.20;1.20;;;9.60;99.90;;;;;;5082200;28;20291;-72
2023/04/17 01:39:36;;;;;;;1.30;1.30;;;9.70;99.90;;;;;;5078823;28;20248;-72
2023/04/17 01:42:06;;;;;;;1.40;1.40;;;9.60;99.90;;;;;;5080488;28;20189;-71
2023/04/17 01:44:33;;;;;;;1.08;1.08;;;9.60;99.90;;;;;;5082654;28;20201;-73
2023/04/17 01:46:59;;;;;;;1.50;1.50;;;9.50;99.90;;;;;;5082550;28;20304;-70
2023/04/17 01:49:27;;;;;;;1.30;1.30;;;9.50;99.90;;;;;;5081601;28;20221;-73
2023/04/17 01:51:54;;;;;;;1.40;1.40;;;9.50;99.90;;;;;;5079994;28;20201;-72
2023/04/17 01:54:21;;;;;;;1.25;1.25;;;9.50;99.90;;;;;;5082211;28;21130;-73
2023/04/17 01:56:48;;;;;;;1.17;1.17;;;9.50;99.90;;;;;;5079366;28;20224;-71
2023/04/17 01:59:16;;;;;;;1.48;1.48;;;9.50;99.90;;;;;;5081056;28;20309;-71
2023/04/17 02:01:43;;;;;;;1.17;1.17;;;9.50;99.90;;;;;;5076677;28;20254;-71
2023/04/17 02:04:10;;;;;;;1.50;1.50;;;9.50;99.90;;;;;;5080746;28;20288;-71
2023/04/17 02:06:37;;;;;;;1.40;1.40;;;9.50;99.90;;;;;;5078837;28;20213;-70
2023/04/17 02:09:04;;;;;;;1.13;1.13;;;9.50;99.90;;;;;;5079822;28;20639;-71
2023/04/17 02:11:31;;;;;;;1.50;1.50;;;9.40;99.90;;;;;;5084037;28;20213;-72
2023/04/17 02:13:58;;;;;;;1.30;1.30;;;9.40;99.90;;;;;;5084597;28;20578;-70
2023/04/17 02:16:27;;;;;;;1.50;1.50;;;9.30;99.90;;;;;;5083567;28;20197;-70
2023/04/17 02:18:55;;;;;;;1.30;1.30;;;9.30;99.90;;;;;;5079662;28;20253;-73
2023/04/17 02:21:22;;;;;;;1.45;1.42;;;9.30;99.90;;;;;;5084838;28;20623;-73
2023/04/17 02:23:49;;;;;;;1.20;1.20;;;9.20;99.90;;;;;;5082763;28;20293;-73
2023/04/17 02:26:16;;;;;;;1.30;1.30;;;9.20;99.90;;;;;;5082829;28;20293;-73
2023/04/17 02:28:44;;;;;;;1.50;1.50;;;9.20;99.90;;;;;;5079683;28;20253;-71
2023/04/17 02:31:12;;;;;;;1.17;1.17;;;9.10;99.90;;;;;;5086459;28;20198;-72
2023/04/17 02:33:40;;;;;;;1.52;1.52;;;9.10;99.90;;;;;;5081965;28;20250;-72
2023/04/17 02:36:08;;;;;;;1.10;1.10;;;9.00;99.90;;;;;;5085454;28;20213;-74
2023/04/17 02:38:36;;;;;;;1.42;1.40;;;9.00;99.90;;;;;;5080212;28;20221;-71
2023/04/17 02:41:03;;;;;;;1.38;1.38;;;9.00;99.90;;;;;;5082216;28;20311;-72
2023/04/17 02:43:30;;;;;;;1.50;1.50;;;9.10;99.90;;;;;;5083199;28;20198;-70
2023/04/17 02:45:57;;;;;;;1.30;1.30;;;9.10;99.90;;;;;;5082645;28;20881;-71
2023/04/17 02:48:24;;;;;;;1.35;1.35;;;9.10;99.90;;;;;;5082006;28;20256;-73
2023/04/17 02:50:52;;;;;;;1.30;1.30;;;9.10;99.90;;;;;;5083273;28;20277;-72
2023/04/17 02:53:19;;;;;;;1.40;1.40;;;9.10;99.90;;;;;;5083240;28;20437;-71
2023/04/17 02:55:46;;;;;;;1.23;1.23;;;9.10;99.90;;;;;;5081357;28;20240;-70
2023/04/17 02:58:13;;;;;;;1.50;1.50;;;9.10;99.90;;;;;;5083715;28;20197;-71
2023/04/17 03:00:40;;;;;;;1.45;1.45;;;9.10;99.90;;;;;;5081664;28;20207;-73
2023/04/17 03:03:08;;;;;;;1.30;1.30;;;9.00;99.90;;;;;;5079373;28;20233;-69
2023/04/17 03:05:35;;;;;;;1.45;1.45;;;9.00;99.90;;;;;;5083105;28;20302;-72
2023/04/17 03:08:04;;;;;;;1.20;1.20;;;8.90;99.90;;;;;;5084269;28;20194;-70
2023/04/17 03:10:31;;;;;;;1.50;1.50;;;8.80;99.90;;;;;;5083829;28;20301;-71
2023/04/17 03:12:57;;;;;;;1.75;1.75;;;8.80;99.90;;;;;;5083050;28;20236;-70
2023/04/17 03:15:25;;;;;;;1.58;1.58;;;8.80;99.90;;;;;;5083428;28;20289;-70
2023/04/17 03:17:52;;;;;;;1.40;1.40;;;8.70;99.90;;;;;;5078877;28;20208;-72
2023/04/17 03:20:19;;;;;;;1.30;1.30;;;8.70;99.90;;;;;;5084284;28;20228;-70
2023/04/17 03:22:46;;;;;;;1.70;1.70;;;8.70;99.90;;;;;;5077462;28;20247;-74
2023/04/17 03:25:15;;;;;;;1.23;1.23;;;8.70;99.90;;;;;;5078029;28;20288;-74
2023/04/17 03:27:41;;;;;;;1.30;1.30;;;8.60;99.90;;;;;;5082233;28;20294;-72
2023/04/17 03:30:09;;;;;;;1.60;1.60;;;8.60;99.90;;;;;;5082867;28;20941;-70
2023/04/17 03:32:37;;;;;;;1.50;1.50;;;8.50;99.90;;;;;;5082904;28;20284;-70
2023/04/17 03:35:05;;;;;;;1.40;1.40;;;8.50;99.90;;;;;;5080572;28;20234;-72
2023/04/17 03:37:32;;;;;;;1.60;1.60;;;8.40;99.90;;;;;;5078501;28;20202;-71
2023/04/17 03:39:59;;;;;;;1.45;1.45;;;8.40;99.90;;;;;;5079279;28;20245;-70
2023/04/17 03:42:28;;;;;;;1.50;1.50;;;8.40;99.90;;;;;;5082749;28;20568;-69
2023/04/17 03:44:55;;;;;;;1.52;1.52;;;8.40;99.90;;;;;;5082758;28;20255;-71
2023/04/17 03:47:22;;;;;;;1.35;1.35;;;8.40;99.90;;;;;;5078772;28;20210;-69
2023/04/17 03:49:49;;;;;;;1.45;1.45;;;8.40;99.90;;;;;;5081173;28;20584;-70
2023/04/17 03:52:16;;;;;;;1.50;1.50;;;8.40;99.90;;;;;;5083228;28;20206;-69
2023/04/17 03:54:43;;;;;;;1.83;1.80;;;8.40;99.90;;;;;;5079173;28;20198;-70
2023/04/17 03:57:10;;;;;;;2.08;1.98;;;8.40;99.90;;;;;;5082396;28;20231;-69
2023/04/17 03:59:38;;;;;;;2.00;1.90;;;8.40;99.90;;;;;;5080845;28;20249;-69
2023/04/17 04:02:05;;;;;;;1.80;1.80;;;8.40;99.90;;;;;;5077747;28;20294;-69
2023/04/17 04:04:32;;;;;;;1.65;1.65;;;8.40;99.90;;;;;;5078276;28;21866;-71
2023/04/17 04:07:01;;;;;;;1.65;1.60;;;8.40;99.90;;;;;;5081025;28;20699;-69
2023/04/17 04:09:28;;;;;;;1.73;1.63;;;8.50;99.90;;;;;;5078081;28;20307;-71
2023/04/17 04:11:56;;;;;;;1.40;1.40;;;8.50;99.90;;;;;;5081529;28;20755;-72
2023/04/17 04:14:23;;;;;;;1.60;1.60;;;8.50;99.90;;;;;;5079969;28;20879;-69
2023/04/17 04:16:51;;;;;;;1.67;1.67;;;8.50;99.90;;;;;;5083234;28;20201;-71
2023/04/17 04:19:18;;;;;;;1.70;1.70;;;8.60;99.90;;;;;;5082052;28;20221;-72
2023/04/17 04:21:45;;;;;;;1.83;1.77;;;8.60;99.90;;;;;;5082067;28;20225;-73
2023/04/17 04:24:13;;;;;;;1.77;1.77;;;8.70;99.90;;;;;;5081850;28;20201;-70
2023/04/17 04:26:41;;;;;;;1.60;1.60;;;8.70;99.90;;;;;;5080963;28;20223;-71
2023/04/17 04:29:07;;;;;;;1.40;1.40;;;8.70;99.90;;;;;;5084723;28;20221;-73
2023/04/17 04:31:34;;;;;;;1.45;1.35;;;8.60;99.90;;;;;;5086686;28;20213;-73
2023/04/17 04:34:04;;;;;;;1.70;1.63;;;8.60;99.90;;;;;;5088407;28;20221;-71
2023/04/17 04:36:34;;;;;;;1.70;1.70;;;8.60;99.90;;;;;;5089430;28;20193;-70
2023/04/17 04:39:04;;;;;;;1.42;1.42;;;8.60;99.90;;;;;;5084362;28;20221;-70
2023/04/17 04:41:32;;;;;;;1.55;1.45;;;8.60;99.90;;;;;;5088340;28;20683;-70
2023/04/17 04:43:59;;;;;;;1.70;1.70;;;8.70;99.90;;;;;;5087982;28;20198;-70
2023/04/17 04:46:27;;;;;;;1.60;1.60;;;8.70;99.90;;;;;;5088691;28;20210;-71
2023/04/17 04:48:54;;;;;;;1.50;1.50;;;8.70;99.90;;;;;;5086808;28;20233;-71
2023/04/17 04:51:22;;;;;;;1.40;1.40;;;8.60;99.90;;;;;;5089518;28;20555;-73
2023/04/17 04:53:49;;;;;;;1.50;1.50;;;8.60;99.90;;;;;;5086902;28;20287;-71
2023/04/17 04:56:16;;;;;;;1.83;1.83;;;8.60;99.90;;;;;;5084329;28;20221;-70
2023/04/17 04:58:43;;;;;;;1.83;1.73;;;8.50;99.90;;;;;;5083582;28;20298;-70
2023/04/17 05:01:10;;;;;;;1.42;1.42;;;8.60;99.90;;;;;;5076841;28;20882;-70
2023/04/17 05:03:37;;;;;;;1.98;1.88;;;8.70;99.90;;;;;;5076741;28;20244;-70
2023/04/17 05:06:04;;;;;;;1.90;1.80;;;8.60;99.90;;;;;;5079368;28;20304;-72
2023/04/17 05:08:33;;;;;;;1.45;1.45;;;8.60;99.90;;;;;;5080714;28;20257;-69
2023/04/17 05:11:00;;;;;;;1.50;1.50;;;8.60;99.90;;;;;;5080112;28;20221;-71
2023/04/17 05:13:28;;;;;;;1.90;1.80;;;8.70;99.90;;;;;;5077914;28;20210;-73
2023/04/17 05:15:55;;;;;;;1.60;1.60;;;8.70;99.90;;;;;;5078357;28;20278;-70
2023/04/17 05:18:22;;;;;;;1.70;1.70;;;8.80;99.90;;;;;;5080612;28;20592;-70
2023/04/17 05:20:49;;;;;;;1.75;1.67;;;8.80;99.90;;;;;;5078784;28;20284;-72
2023/04/17 05:23:16;;;;;;;1.83;1.73;;;8.80;99.90;;;;;;5077480;28;20201;-70
2023/04/17 05:25:45;;;;;;;1.83;1.73;;;8.80;99.90;;;;;;5079159;28;20237;-72
2023/04/17 05:28:12;;;;;;;1.80;1.80;;;8.80;99.90;;;;;;5075210;28;20783;-70
2023/04/17 05:30:39;;;;;;;1.55;1.55;;;8.90;99.90;;;;;;5078221;28;20294;-70
2023/04/17 05:33:06;;;;;;;1.58;1.58;;;9.00;99.90;;;;;;5082308;28;20209;-73
2023/04/17 05:35:33;;;;;;;1.60;1.60;;;9.00;99.90;;;;;;5078987;28;20202;-75
2023/04/17 05:38:00;;;;;;;1.83;1.73;;;9.10;99.90;;;;;;5076575;28;20214;-70
2023/04/17 05:40:27;;;;;;;1.90;1.80;;;9.20;99.90;;;;;;5079036;28;20329;-70
2023/04/17 05:42:56;;;;;;;2.25;2.10;;;9.30;99.90;;;;;;5077167;28;20256;-71
2023/04/17 05:45:22;;;;;;;1.77;1.67;;;9.40;99.90;;;;;;5085361;28;20198;-70
2023/04/17 05:47:49;;;;;;;1.83;1.77;;;9.40;99.90;;;;;;5082991;28;20601;-72
2023/04/17 05:50:16;;;;;;;1.80;1.70;;;9.50;99.90;;;;;;5079059;28;20309;-71
2023/04/17 05:52:46;;;;;;;2.08;1.98;;;9.60;99.90;;;;;;5083098;28;20315;-74
2023/04/17 05:55:13;;;;;;;1.60;1.60;;;9.70;99.90;;;;;;5078150;28;20328;-71
2023/04/17 05:57:40;;;;;;;1.60;1.50;;;9.80;99.90;;;;;;5080711;28;20781;-71
2023/04/17 06:00:11;;;;;;;1.30;1.30;;;9.90;99.90;;;;;;5079049;28;20270;-73
2023/04/17 06:02:39;;;;;;;1.42;1.42;;;9.90;99.90;;;;;;5081967;28;20783;-70
2023/04/17 06:05:07;;;;;;;1.63;1.63;;;10.00;99.90;;;;;;5085100;28;20229;-73
2023/04/17 06:07:34;;;;;;;1.90;1.80;;;10.10;99.90;;;;;;5080636;28;20218;-71
2023/04/17 06:10:02;;;;;;;1.50;1.50;;;10.20;99.90;;;;;;5083122;28;20221;-71
2023/04/17 06:12:29;;;;;;;1.90;1.80;;;10.20;99.90;;;;;;5080758;28;20234;-74
2023/04/17 06:14:56;;;;;;;1.88;1.77;;;10.20;99.90;;;;;;5076230;28;20229;-71
2023/04/17 06:17:24;;;;;;;2.03;1.92;;;10.20;99.90;;;;;;5081210;28;20673;-71
2023/04/17 06:19:51;;;;;;;2.53;2.33;;;10.30;99.90;;;;;;5082351;28;20259;-74
2023/04/17 06:22:18;;;;;;;3.13;2.78;;;10.30;99.90;;;;;;5085640;28;20194;-72
2023/04/17 06:24:45;;;;;;;2.75;2.30;;;10.30;99.90;;;;;;5085796;28;20932;-73
2023/04/17 06:27:12;;;;;;;2.78;1.90;;;10.40;99.90;;;;;;5079503;28;20210;-72
2023/04/17 06:29:40;;;;;;;2.40;2.20;;;10.40;99.90;;;;;;5082734;28;20266;-69
2023/04/17 06:32:07;;;;;;;1.95;1.85;;;10.30;99.90;;;;;;5085043;28;20221;-72
2023/04/17 06:34:35;;;;;;;2.00;1.90;;;10.10;99.90;;;;;;5086742;28;20247;-75
2023/04/17 06:37:02;;;;;;;1.90;1.80;;;10.10;99.90;;;;;;5084039;28;20193;-72
2023/04/17 06:39:30;;;;;;;1.88;1.77;;;9.90;99.90;;;;;;5083081;28;20221;-74
2023/04/17 06:41:58;;;;;;;1.95;1.85;;;9.80;99.90;;;;;;5086852;28;20197;-71
2023/04/17 06:44:25;;;;;;;1.75;1.65;;;9.80;99.90;;;;;;5079629;28;20247;-74
2023/04/17 06:46:52;;;;;;;2.00;1.90;;;9.80;99.90;;;;;;5080352;28;20296;-76
2023/04/17 06:49:19;;;;;;;1.52;1.52;;;9.90;99.90;;;;;;5077071;28;20854;-72
2023/04/17 06:51:48;;;;;;;1.50;1.50;;;10.00;99.90;;;;;;5079393;28;20731;-72
2023/04/17 06:54:15;;;;;;;1.48;1.48;;;10.10;99.90;;;;;;5080228;28;20259;-73
2023/04/17 06:56:42;;;;;;;1.25;1.25;;;10.20;99.90;;;;;;5078630;28;20292;-71
2023/04/17 06:59:09;;;;;;;1.25;1.25;;;10.30;99.90;;;;;;5078355;28;20298;-74
2023/04/17 07:01:37;;;;;;;1.40;1.40;;;10.40;99.90;;;;;;5074346;28;20960;-71
2023/04/17 07:04:04;;;;;;;1.67;1.58;;;10.60;99.90;;;;;;5075255;28;20676;-72
2023/04/17 07:06:32;;;;;;;1.52;1.52;;;10.70;99.90;;;;;;5076064;28;20202;-72
2023/04/17 07:09:01;;;;;;;1.83;1.45;;;10.70;99.90;;;;;;5078970;28;20221;-74
2023/04/17 07:11:28;;;;;;;1.40;1.35;;;10.80;99.90;;;;;;5074668;28;20275;-73
2023/04/17 07:13:55;;;;;;;1.50;1.50;;;11.00;99.90;;;;;;5077041;28;20293;-75
2023/04/17 07:16:22;;;;;;;1.70;1.52;;;11.10;99.90;;;;;;5075950;28;20625;-72
2023/04/17 07:18:49;;;;;;;1.55;1.55;;;11.00;99.90;;;;;;5079448;28;20301;-76
2023/04/17 07:21:16;;;;;;;1.80;1.50;;;10.70;99.90;;;;;;5078177;28;20302;-73
2023/04/17 07:23:44;;;;;;;1.52;1.50;;;10.50;99.90;;;;;;5081058;28;20292;-72
2023/04/17 07:26:12;;;;;;;1.60;1.50;;;10.40;99.90;;;;;;5077376;28;20228;-71
2023/04/17 07:28:39;;;;;;;1.40;1.40;;;10.40;99.90;;;;;;5076973;28;20214;-70
2023/04/17 07:31:07;;;;;;;1.80;1.70;;;10.50;99.90;;;;;;5080138;28;20477;-74
2023/04/17 07:33:35;;;;;;;1.50;1.40;;;10.80;99.90;;;;;;5076227;28;20213;-71
2023/04/17 07:36:02;;;;;;;1.80;1.70;;;11.10;99.90;;;;;;5076480;28;20209;-72
2023/04/17 07:38:31;;;;;;;1.55;1.45;;;11.40;99.90;;;;;;5077479;28;20215;-71
2023/04/17 07:40:58;;;;;;;1.60;1.50;;;11.60;99.90;;;;;;5077332;28;20204;-71
2023/04/17 07:43:27;;;;;;;1.55;1.45;;;11.90;99.90;;;;;;5079603;28;20285;-73
2023/04/17 07:45:54;;;;;;;1.70;1.60;;;12.00;99.90;;;;;;5074217;28;20201;-72
2023/04/17 07:48:22;;;;;;;1.80;1.70;;;12.10;99.90;;;;;;5075276;28;20302;-71
2023/04/17 07:50:49;;;;;;;1.70;1.60;;;12.20;99.90;;;;;;5070848;28;20296;-70
2023/04/17 07:53:17;;;;;;;1.60;1.60;;;12.20;99.90;;;;;;5075307;28;20198;-71
2023/04/17 07:55:44;;;;;;;1.70;1.60;;;12.10;99.90;;;;;;5075073;28;20455;-72
2023/04/17 07:58:11;;;;;;;1.73;1.63;;;12.10;99.90;;;;;;5072572;28;20324;-71
2023/04/17 08:00:41;;;;;;;1.88;1.77;;;12.20;99.90;;;;;;5074656;28;20202;-72
2023/04/17 08:03:08;;;;;;;1.77;1.67;;;12.30;99.90;;;;;;5075685;28;20205;-71
2023/04/17 08:05:35;;;;;;;1.65;1.55;;;12.40;99.90;;;;;;5078133;28;20201;-71
2023/04/17 08:08:03;;;;;;;1.55;1.45;;;12.60;99.90;;;;;;5072915;28;20294;-71
2023/04/17 08:10:30;;;;;;;1.60;1.50;;;12.70;99.90;;;;;;5075681;28;20225;-71
2023/04/17 08:12:57;;;;;;;2.10;1.70;;;12.80;99.90;;;;;;5073881;28;20225;-69
2023/04/17 08:15:24;;;;;;;1.70;1.63;;;12.70;99.90;;;;;;5074308;28;20226;-68
2023/04/17 08:17:52;;;;;;;1.50;1.45;;;12.70;99.90;;;;;;5074915;28;20295;-70
2023/04/17 08:20:19;;;;;;;2.20;1.35;;;12.70;99.90;;;;;;5076610;28;20229;-69
2023/04/17 08:22:46;;;;;;;1.70;1.60;;;12.60;99.90;;;;;;5077207;28;20301;-70
2023/04/17 08:25:14;;;;;;;1.52;1.42;;;12.60;99.90;;;;;;5075137;28;20225;-70
2023/04/17 08:27:42;;;;;;;1.50;1.40;;;12.50;99.90;;;;;;5077437;28;20750;-71
2023/04/17 08:30:12;;;;;;;1.58;1.48;;;12.50;99.90;;;;;;5074366;28;20563;-73
2023/04/17 08:32:40;;;;;;;1.30;1.30;;;12.60;99.90;;;;;;5070870;28;20284;-70
2023/04/17 08:35:11;;;;;;;1.58;1.48;;;12.60;99.90;;;;;;5072777;28;20233;-70
2023/04/17 08:37:38;;;;;;;1.55;1.45;;;12.70;99.90;;;;;;5073013;28;20202;-70
2023/04/17 08:40:08;;;;;;;1.70;1.60;;;12.70;99.90;;;;;;5072685;28;20217;-70
2023/04/17 08:42:36;;;;;;;2.10;1.90;;;12.70;99.90;;;;;;5069864;28;20284;-70
2023/04/17 08:45:08;;;;;;;1.73;1.60;;;12.80;99.90;;;;;;5075740;28;20206;-70
2023/04/17 08:47:35;;;;;;;1.60;1.50;;;13.00;99.90;;;;;;5070392;28;20237;-70
2023/04/17 08:50:09;;;;;;;1.45;1.38;;;13.20;99.90;;;;;;5075270;28;20302;-72
2023/04/17 08:52:41;;;;;;;1.30;1.30;;;13.30;99.90;;;;;;5073309;28;20197;-70
2023/04/17 08:55:09;;;;;;;1.48;1.48;;;13.30;99.90;;;;;;5070160;28;20205;-70
2023/04/17 08:57:38;;;;;;;1.65;1.55;;;13.40;99.90;;;;;;5072883;28;20652;-71
2023/04/17 09:00:10;;;;;;;2.10;1.35;;;13.60;99.90;;;;;;5069480;28;20248;-72
2023/04/17 09:02:53;;;;;;;1.70;1.60;;;13.70;99.90;;;;;;5068383;28;20205;-72
2023/04/17 09:05:22;;;;;;;1.25;1.25;;;14.00;99.90;;;;;;5071217;28;20205;-73
2023/04/17 09:07:49;;;;;;;1.15;1.15;;;14.20;99.90;;;;;;5071305;28;20201;-72
2023/04/17 09:10:16;;;;;;;1.30;1.30;;;14.30;99.90;;;;;;5071506;28;20217;-71
2023/04/17 09:12:59;;;;;;;2.00;1.20;;;14.30;99.90;;;;;;5073453;28;20388;-71
2023/04/17 09:15:27;;;;;;;1.08;1.08;;;14.30;99.90;;;;;;5075160;28;20233;-73
2023/04/17 09:17:54;;;;;;;1.42;1.30;;;14.30;99.90;;;;;;5071834;28;20210;-72
2023/04/17 09:20:22;;;;;;;1.20;1.20;;;14.40;99.90;;;;;;5073389;28;20272;-73
2023/04/17 09:22:58;;;;;;;1.42;1.30;;;14.40;99.90;;;;;;5073062;28;20237;-72
2023/04/17 09:25:26;;;;;;;1.05;1.05;;;14.60;99.90;;;;;;5074903;28;20208;-72
2023/04/17 09:27:54;;;;;;;1.00;1.00;;;14.70;99.90;;;;;;5072773;28;20209;-73
2023/04/17 09:30:25;;;;;;;1.27;1.27;;;14.90;99.90;;;;;;5073897;28;20580;-72
2023/04/17 09:33:04;;;;;;;3.15;1.85;;;15.00;99.90;;;;;;5078403;28;20875;-72
2023/04/17 09:35:33;;;;;;;1.60;1.50;;;15.10;99.90;;;;;;5075452;28;20601;-72
2023/04/17 09:38:00;;;;;;;1.52;1.20;;;15.10;99.90;;;;;;5072724;28;20735;-72
2023/04/17 09:40:29;;;;;;;1.23;1.23;;;15.20;99.90;;;;;;5074218;28;20225;-73
2023/04/17 09:42:57;;;;;;;0.93;0.93;;;15.40;99.90;;;;;;5073595;28;20917;-72
2023/04/17 09:45:28;;;;;;;1.55;1.45;;;15.60;99.90;;;;;;5073381;28;20312;-73
2023/04/17 09:47:55;;;;;;;1.52;1.42;;;15.70;99.90;;;;;;5071660;28;20216;-72
2023/04/17 09:50:23;;;;;;;11.23;5.82;;;15.70;99.90;;;;;;5074055;28;20249;-72
2023/04/17 09:52:53;;;;;;;13.13;8.18;;;15.90;99.90;;;;;;5075438;28;20203;-72
2023/04/17 09:55:21;;;;;;;8.52;5.95;;;16.30;99.90;;;;;;5075135;28;20885;-72
2023/04/17 09:57:54;;;;;;;4.35;2.30;;;16.80;99.90;;;;;;5072339;28;20194;-72
2023/04/17 10:00:22;;;;;;;1.60;1.50;;;16.90;99.90;;;;;;5074450;28;20267;-72
2023/04/17 10:02:51;;;;;;;1.63;1.40;;;16.90;99.90;;;;;;5074702;28;20297;-72
2023/04/17 10:05:19;;;;;;;1.40;1.30;;;17.40;99.90;;;;;;5068552;28;20202;-72
2023/04/17 10:07:46;;;;;;;1.35;1.25;;;17.90;99.40;;;;;;5072315;28;20266;-72
2023/04/17 10:10:22;;;;;;;1.33;1.08;;;18.30;97.80;;;;;;5070759;28;20740;-70
2023/04/17 10:12:50;;;;;;;1.00;1.00;;;18.30;96.20;;;;;;5069835;28;20316;-70
2023/04/17 10:15:19;;;;;;;1.10;1.10;;;18.40;94.60;;;;;;5073238;28;20205;-73
2023/04/17 10:17:48;;;;;;;1.00;1.00;;;18.50;94.40;;;;;;5075107;28;20205;-72
2023/04/17 10:20:35;;;;;;;0.90;0.90;;;18.10;95.40;;;;;;5070680;28;20225;-72
2023/04/17 10:23:30;;;;;;;1.10;1.10;;;17.70;92.70;;;;;;5070735;28;20246;-70
2023/04/17 10:26:35;;;;;;;0.90;0.90;;;17.90;92.60;;;;;;5071898;28;20198;-70
2023/04/17 10:29:02;;;;;;;1.00;1.00;;;17.60;92.60;;;;;;5068511;28;20307;-73
2023/04/17 10:32:02;;;;;;;1.10;1.00;;;17.70;94.20;;;;;;5072461;28;20290;-72
2023/04/17 10:34:36;;;;;;;0.90;0.90;;;17.90;94.00;;;;;;5075969;28;20293;-71
2023/04/17 10:37:03;;;;;;;1.05;1.05;;;18.00;93.20;;;;;;5079982;28;20201;-70
2023/04/17 10:39:50;;;;;;;1.00;1.00;;;18.50;93.50;;;;;;5076699;28;20263;-70
2023/04/17 10:42:20;;;;;;;1.13;1.00;;;18.90;93.20;;;;;;5079800;28;20285;-70
2023/04/17 10:44:48;;;;;;;1.00;1.00;;;18.90;91.30;;;;;;5076976;28;20197;-70
2023/04/17 10:47:15;;;;;;;0.95;0.95;;;18.80;91.80;;;;;;5074664;28;20957;-69
2023/04/17 10:49:53;;;;;;;1.30;1.20;;;18.80;92.20;;;;;;5078344;28;20222;-71
2023/04/17 10:52:47;;;;;;;1.20;0.98;;;18.90;91.00;;;;;;5076709;28;20288;-69
2023/04/17 10:55:16;;;;;;;0.80;0.80;;;18.80;90.70;;;;;;5028883;28;20734;-73
2023/04/17 10:57:55;;;;;;;0.93;0.93;;;18.80;91.50;;;;;;5074743;28;20237;-73
2023/04/17 11:00:31;;;;;;;1.17;1.08;;;18.80;90.90;;;;;;5073914;28;20766;-72
2023/04/17 11:02:59;;;;;;;1.00;1.00;;;18.70;91.40;;;;;;5077662;28;20201;-70
2023/04/17 11:05:26;;;;;;;0.90;0.90;;;18.80;91.60;;;;;;5074334;28;20232;-70
2023/04/17 11:07:53;;;;;;;0.80;0.80;;;18.60;90.50;;;;;;5076259;28;20205;-70
2023/04/17 11:10:21;;;;;;;0.90;0.90;;;18.60;91.00;;;;;;5075381;28;20226;-71
2023/04/17 11:12:50;;;;;;;1.00;1.00;;;18.90;92.50;;;;;;5076490;28;20616;-70
2023/04/17 11:15:18;;;;;;;0.90;0.90;;;19.30;92.20;;;;;;5080322;28;20315;-70
2023/04/17 11:17:48;;;;;;;0.93;0.93;;;19.60;90.60;;;;;;5076928;28;20324;-70
2023/04/17 11:20:22;;;;;;;1.00;1.00;;;19.70;88.40;;;;;;5075818;28;20225;-70
2023/04/17 11:22:49;;;;;;;0.93;0.93;;;19.80;90.00;;;;;;5076461;28;20225;-71
2023/04/17 11:25:21;;;;;;;1.00;1.00;;;19.70;89.40;;;;;;5075835;28;20631;-70
2023/04/17 11:27:51;;;;;;;0.90;0.90;;;19.60;88.90;;;;;;5078347;28;20771;-70
2023/04/17 11:30:27;;;;;;;1.38;1.27;;;19.60;88.80;;;;;;5078516;28;20213;-71
2023/04/17 11:32:54;;;;;;;1.13;1.02;;;19.30;87.30;;;;;;5078348;28;20202;-70
2023/04/17 11:35:28;;;;;;;1.08;1.00;;;19.10;90.00;;;;;;5077066;28;20237;-72
2023/04/17 11:38:06;;;;;;;1.02;1.02;;;18.80;85.40;;;;;;5076522;28;20197;-69
2023/04/17 11:40:33;;;;;;;1.00;1.00;;;18.70;86.20;;;;;;5077763;28;20251;-70
2023/04/17 11:43:05;;;;;;;0.88;0.88;;;18.70;88.50;;;;;;5078152;28;20193;-70
2023/04/17 11:45:35;;;;;;;0.70;0.70;;;18.90;87.70;;;;;;5079825;28;20259;-70
2023/04/17 11:48:02;;;;;;;0.80;0.80;;;19.00;86.00;;;;;;5077364;28;20198;-72
2023/04/17 11:50:30;;;;;;;0.90;0.90;;;19.30;85.70;;;;;;5075475;28;20249;-71
2023/04/17 11:52:58;;;;;;;0.88;0.88;;;19.40;84.10;;;;;;5078563;28;20202;-70
2023/04/17 11:55:29;;;;;;;1.00;1.00;;;19.50;83.60;;;;;;5075074;28;20666;-71
2023/04/17 11:57:57;;;;;;;0.90;0.90;;;19.80;86.60;;;;;;5074238;28;20204;-72
2023/04/17 12:00:28;;;;;;;0.90;0.90;;;19.80;83.40;;;;;;5074667;28;20225;-69
2023/04/17 12:02:57;;;;;;;0.90;0.90;;;19.90;85.40;;;;;;5076059;28;20252;-70
2023/04/17 12:05:25;;;;;;;0.90;0.90;;;19.80;85.90;;;;;;5077854;28;20194;-69
2023/04/17 12:08:03;;;;;;;1.00;1.00;;;20.00;85.50;;;;;;5077325;28;20205;-69
2023/04/17 12:10:41;;;;;;;0.80;0.80;;;20.10;83.20;;;;;;5077011;28;20312;-69
2023/04/17 12:13:08;;;;;;;1.38;1.30;;;20.30;86.00;;;;;;5075876;28;20207;-69
2023/04/17 12:15:36;;;;;;;1.60;1.50;;;20.70;85.00;;;;;;5077360;28;20225;-69
2023/04/17 12:18:07;;;;;;;2.17;1.10;;;20.90;83.40;;;;;;5075332;28;20292;-70
2023/04/17 12:20:35;;;;;;;0.80;0.80;;;21.00;80.80;;;;;;5075853;28;20217;-70
2023/04/17 12:23:02;;;;;;;0.90;0.90;;;20.90;80.00;;;;;;5077695;28;20194;-70
2023/04/17 12:25:30;;;;;;;1.48;1.00;;;20.90;79.80;;;;;;5074369;28;20193;-70
2023/04/17 12:27:58;;;;;;;0.82;0.80;;;21.10;80.20;;;;;;5076690;28;20225;-69
2023/04/17 12:30:26;;;;;;;0.93;0.90;;;21.30;76.80;;;;;;5078756;28;20305;-69
2023/04/17 12:32:53;;;;;;;0.90;0.90;;;21.40;76.90;;;;;;5076047;28;20276;-70
2023/04/17 12:35:22;;;;;;;0.95;0.95;;;21.70;80.00;;;;;;5077941;28;20189;-69
2023/04/17 12:37:51;;;;;;;2.28;0.90;;;21.90;77.20;;;;;;5076111;28;20613;-70
2023/04/17 12:40:20;;;;;;;1.00;1.00;;;22.00;76.70;;;;;;5074681;28;20217;-70
2023/04/17 12:42:47;;;;;;;0.80;0.80;;;22.00;75.80;;;;;;5078413;28;20198;-71
2023/04/17 12:45:14;;;;;;;1.00;0.77;;;21.80;73.40;;;;;;5078496;28;20193;-70
2023/04/17 12:47:41;;;;;;;1.10;1.00;;;21.90;75.90;;;;;;5074853;28;20201;-70
2023/04/17 12:50:10;;;;;;;1.17;1.02;;;21.80;71.50;;;;;;5072085;28;20253;-70
2023/04/17 12:52:39;;;;;;;0.82;0.80;;;21.30;73.70;;;;;;5074004;28;20204;-71
2023/04/17 12:55:07;;;;;;;0.80;0.80;;;20.90;75.20;;;;;;5074614;28;20232;-70
2023/04/17 12:57:35;;;;;;;0.90;0.90;;;20.60;75.80;;;;;;5073619;28;20194;-71
2023/04/17 13:00:04;;;;;;;0.90;0.90;;;20.60;76.40;;;;;;5076177;28;20683;-70